Time;durP1;ratioP1;P1;durP2;ratioP2;P2;SDS_P1;SDS_P2;PMS_P1;PMS_P2;Temp;Humidity;BMP_temperature;BMP_pressure;BME280_temperature;BME280_humidity;BME280_pressure;Samples;Min_cycle;Max_cycle;Signal;HPM_P1;HPM_P2
2022/07/26 00:00:57;;;;;;;;;;;19.90;99.90;;;;;;5065039;28;19931;-71
2022/07/26 00:03:23;;;;;;;;;;;19.90;99.90;;;;;;5067226;28;19924;-69
2022/07/26 00:05:52;;;;;;;;;;;20.10;99.90;;;;;;5064517;28;19917;-69
2022/07/26 00:08:17;;;;;;;;;;;20.30;99.90;;;;;;5067101;28;19916;-69
2022/07/26 00:10:44;;;;;;;;;;;20.30;99.90;;;;;;5064156;28;20293;-70
2022/07/26 00:13:10;;;;;;;;;;;20.10;99.90;;;;;;5065988;28;19916;-69
2022/07/26 00:15:36;;;;;;;;;;;19.90;99.90;;;;;;5064336;28;19921;-69
2022/07/26 00:18:01;;;;;;;;;;;19.80;99.90;;;;;;5067134;28;19916;-70
2022/07/26 00:20:27;;;;;;;;;;;19.90;99.90;;;;;;5062670;28;19920;-68
2022/07/26 00:22:52;;;;;;;;;;;19.90;99.90;;;;;;5066292;28;19913;-69
2022/07/26 00:25:18;;;;;;;;;;;19.90;99.90;;;;;;5065172;28;19946;-69
2022/07/26 00:27:43;;;;;;;;;;;19.80;99.90;;;;;;5067129;28;20352;-70
2022/07/26 00:30:09;;;;;;;;;;;19.80;99.90;;;;;;5061952;28;20453;-71
2022/07/26 00:32:35;;;;;;;;;;;19.80;99.90;;;;;;5066647;28;19916;-68
2022/07/26 00:35:00;;;;;;;;;;;19.80;99.90;;;;;;5064838;28;20363;-69
2022/07/26 00:37:26;;;;;;;;;;;19.80;99.90;;;;;;5066418;28;19979;-68
2022/07/26 00:39:51;;;;;;;;;;;19.70;99.90;;;;;;5064522;28;20276;-69
2022/07/26 00:42:17;;;;;;;;;;;19.80;99.90;;;;;;5065488;28;20329;-69
2022/07/26 00:44:44;;;;;;;;;;;19.80;99.90;;;;;;5063911;28;19920;-68
2022/07/26 00:47:09;;;;;;;;;;;19.80;99.90;;;;;;5066460;28;20561;-69
2022/07/26 00:49:35;;;;;;;;;;;19.80;99.90;;;;;;5059557;28;19917;-68
2022/07/26 00:52:01;;;;;;;;;;;19.80;99.90;;;;;;5046788;28;19960;-68
2022/07/26 00:54:26;;;;;;;;;;;19.80;99.90;;;;;;5063300;28;20081;-68
2022/07/26 00:56:52;;;;;;;;;;;19.70;99.90;;;;;;5065914;28;19932;-69
2022/07/26 00:59:18;;;;;;;;;;;19.60;99.90;;;;;;5064304;28;20361;-68
2022/07/26 01:01:44;;;;;;;;;;;19.60;99.90;;;;;;5066308;28;20039;-69
2022/07/26 01:04:09;;;;;;;;;;;19.60;99.90;;;;;;5064811;28;19962;-69
2022/07/26 01:06:35;;;;;;;;;;;19.60;99.90;;;;;;5066544;28;19957;-69
2022/07/26 01:09:02;;;;;;;;;;;19.60;99.90;;;;;;5065989;28;19923;-69
2022/07/26 01:11:27;;;;;;;;;;;19.60;99.90;;;;;;5064366;28;19916;-69
2022/07/26 01:13:53;;;;;;;;;;;19.70;99.90;;;;;;5065727;28;19947;-69
2022/07/26 01:16:18;;;;;;;;;;;19.80;99.90;;;;;;5063292;28;19965;-69
2022/07/26 01:18:44;;;;;;;;;;;19.80;99.90;;;;;;5065163;28;19920;-69
2022/07/26 01:21:10;;;;;;;;;;;19.80;99.90;;;;;;5064049;28;19973;-69
2022/07/26 01:23:35;;;;;;;;;;;19.80;99.90;;;;;;5065757;28;19917;-70
2022/07/26 01:26:01;;;;;;;;;;;19.80;99.90;;;;;;5060153;28;19923;-68
2022/07/26 01:28:27;;;;;;;;;;;19.80;99.90;;;;;;5064824;28;19917;-67
2022/07/26 01:30:52;;;;;;;;;;;19.90;99.90;;;;;;5057999;28;19913;-68
2022/07/26 01:33:17;;;;;;;;;;;20.00;99.90;;;;;;5065169;28;19920;-69
2022/07/26 01:35:43;;;;;;;;;;;20.00;99.90;;;;;;5062923;28;19916;-68
2022/07/26 01:38:08;;;;;;;;;;;19.80;99.90;;;;;;5065179;28;19923;-68
2022/07/26 01:40:34;;;;;;;;;;;19.80;99.90;;;;;;5063949;28;19973;-68
2022/07/26 01:42:59;;;;;;;;;;;19.70;99.90;;;;;;5065564;28;19965;-68
2022/07/26 01:45:24;;;;;;;;;;;19.80;99.90;;;;;;5063214;28;20232;-68
2022/07/26 01:47:50;;;;;;;;;;;19.80;99.90;;;;;;5065352;28;19924;-68
2022/07/26 01:50:16;;;;;;;;;;;19.80;99.90;;;;;;5061768;28;19924;-68
2022/07/26 01:52:42;;;;;;;;;;;19.80;99.90;;;;;;5065019;28;19916;-69
2022/07/26 01:55:07;;;;;;;;;;;19.80;99.90;;;;;;5056679;28;19924;-69
2022/07/26 01:57:33;;;;;;;;;;;19.90;99.90;;;;;;5049823;28;19932;-68
2022/07/26 01:59:58;;;;;;;;;;;19.80;99.90;;;;;;5062844;28;19961;-68
2022/07/26 02:02:24;;;;;;;;;;;19.80;99.90;;;;;;5052034;28;19924;-68
2022/07/26 02:04:58;;;;;;;;;;;19.80;99.90;;;;;;5062601;28;19956;-69
2022/07/26 02:07:24;;;;;;;;;;;19.60;99.90;;;;;;5058562;28;19912;-69
2022/07/26 02:09:49;;;;;;;;;;;19.60;99.90;;;;;;5061976;28;19920;-69
2022/07/26 02:12:15;;;;;;;;;;;19.60;99.90;;;;;;5054814;28;20444;-68
2022/07/26 02:14:40;;;;;;;;;;;19.40;99.90;;;;;;5061980;28;19920;-69
2022/07/26 02:17:06;;;;;;;;;;;19.40;99.90;;;;;;5052578;28;19973;-69
2022/07/26 02:19:32;;;;;;;;;;;19.30;99.90;;;;;;5062760;28;20347;-69
2022/07/26 02:21:57;;;;;;;;;;;19.30;99.90;;;;;;5065213;28;19916;-68
2022/07/26 02:24:23;;;;;;;;;;;19.40;99.90;;;;;;5064500;28;20428;-70
2022/07/26 02:26:48;;;;;;;;;;;19.40;99.90;;;;;;5062680;28;19931;-68
2022/07/26 02:29:14;;;;;;;;;;;19.40;99.90;;;;;;5064508;28;20375;-68
2022/07/26 02:31:39;;;;;;;;;;;19.20;99.90;;;;;;5063337;28;19967;-68
2022/07/26 02:34:05;;;;;;;;;;;19.20;99.90;;;;;;5062236;28;20283;-68
2022/07/26 02:36:30;;;;;;;;;;;19.20;99.90;;;;;;5062287;28;19916;-68
2022/07/26 02:38:55;;;;;;;;;;;19.20;99.90;;;;;;5063524;28;19959;-68
2022/07/26 02:41:21;;;;;;;;;;;19.20;99.90;;;;;;5060499;28;19925;-69
2022/07/26 02:43:46;;;;;;;;;;;19.10;99.90;;;;;;5063354;28;19917;-69
2022/07/26 02:46:12;;;;;;;;;;;19.10;99.90;;;;;;5054926;28;19916;-70
2022/07/26 02:48:37;;;;;;;;;;;19.20;99.90;;;;;;5063797;28;20282;-67
2022/07/26 02:51:02;;;;;;;;;;;19.00;99.90;;;;;;5059098;28;19916;-68
2022/07/26 02:53:28;;;;;;;;;;;19.00;99.90;;;;;;5063883;28;19916;-69
2022/07/26 02:55:53;;;;;;;;;;;19.10;99.90;;;;;;5060752;28;19920;-68
2022/07/26 02:58:23;;;;;;;;;;;19.10;99.90;;;;;;5063514;28;19921;-68
2022/07/26 03:00:49;;;;;;;;;;;19.20;99.90;;;;;;5051553;28;20008;-69
2022/07/26 03:03:17;;;;;;;;;;;19.10;99.90;;;;;;5063493;28;20003;-70
2022/07/26 03:05:43;;;;;;;;;;;19.10;99.90;;;;;;5062382;28;19917;-69
2022/07/26 03:08:08;;;;;;;;;;;19.00;99.90;;;;;;5064126;28;19920;-69
2022/07/26 03:10:34;;;;;;;;;;;18.90;99.90;;;;;;5054289;28;20370;-69
2022/07/26 03:12:59;;;;;;;;;;;18.80;99.90;;;;;;5063535;28;19916;-69
2022/07/26 03:15:24;;;;;;;;;;;18.80;99.90;;;;;;5061770;28;20394;-70
2022/07/26 03:17:50;;;;;;;;;;;18.90;99.90;;;;;;5054345;28;19908;-70
2022/07/26 03:20:15;;;;;;;;;;;18.90;99.90;;;;;;5061371;28;20379;-68
2022/07/26 03:22:41;;;;;;;;;;;18.90;99.90;;;;;;5064363;28;19912;-69
2022/07/26 03:25:07;;;;;;;;;;;18.90;99.90;;;;;;5057795;28;19936;-68
2022/07/26 03:27:32;;;;;;;;;;;18.80;99.90;;;;;;5055675;28;20275;-69
2022/07/26 03:29:57;;;;;;;;;;;18.70;99.90;;;;;;5061976;28;20112;-69
2022/07/26 03:32:23;;;;;;;;;;;18.70;99.90;;;;;;5054254;28;19924;-68
2022/07/26 03:34:48;;;;;;;;;;;18.70;99.90;;;;;;5061650;28;19946;-69
2022/07/26 03:37:14;;;;;;;;;;;18.80;99.90;;;;;;5051617;28;19917;-69
2022/07/26 03:39:39;;;;;;;;;;;18.80;99.90;;;;;;5063460;28;19928;-70
2022/07/26 03:42:05;;;;;;;;;;;18.80;99.90;;;;;;5059704;28;19925;-70
2022/07/26 03:44:30;;;;;;;;;;;18.70;99.90;;;;;;5066690;28;19916;-70
2022/07/26 03:46:56;;;;;;;;;;;18.70;99.90;;;;;;5059344;28;20302;-69
2022/07/26 03:49:21;;;;;;;;;;;18.60;99.90;;;;;;5066150;28;19965;-69
2022/07/26 03:51:47;;;;;;;;;;;18.60;99.90;;;;;;5063089;28;20268;-69
2022/07/26 03:54:12;;;;;;;;;;;18.70;99.90;;;;;;5066456;28;19916;-69
2022/07/26 03:56:39;;;;;;;;;;;18.70;99.90;;;;;;5065135;28;20138;-69
2022/07/26 03:59:06;;;;;;;;;;;18.60;99.90;;;;;;5067029;28;19924;-69
2022/07/26 04:01:33;;;;;;;;;;;18.80;99.90;;;;;;5062461;28;19923;-69
2022/07/26 04:03:59;;;;;;;;;;;18.80;99.90;;;;;;5066827;28;19916;-69
2022/07/26 04:06:25;;;;;;;;;;;18.80;99.90;;;;;;5063404;28;19916;-70
2022/07/26 04:08:50;;;;;;;;;;;18.80;99.90;;;;;;5066431;28;19995;-70
2022/07/26 04:11:15;;;;;;;;;;;18.70;99.90;;;;;;5065206;28;19920;-70
2022/07/26 04:13:41;;;;;;;;;;;18.80;99.90;;;;;;5066695;28;20292;-70
2022/07/26 04:16:06;;;;;;;;;;;18.60;99.90;;;;;;5053736;28;19913;-70
2022/07/26 04:18:32;;;;;;;;;;;18.70;99.90;;;;;;5066673;28;19912;-70
2022/07/26 04:20:57;;;;;;;;;;;18.50;99.90;;;;;;5055673;28;20394;-69
2022/07/26 04:23:23;;;;;;;;;;;18.50;99.90;;;;;;5065949;28;20011;-69
2022/07/26 04:25:48;;;;;;;;;;;18.40;99.90;;;;;;5065055;28;19919;-69
2022/07/26 04:28:14;;;;;;;;;;;18.40;99.90;;;;;;5066435;28;19921;-70
2022/07/26 04:30:39;;;;;;;;;;;18.40;99.90;;;;;;5064316;28;19921;-70
2022/07/26 04:33:05;;;;;;;;;;;18.60;99.90;;;;;;5067037;28;19917;-69
2022/07/26 04:35:31;;;;;;;;;;;18.60;99.90;;;;;;5064819;28;20185;-69
2022/07/26 04:37:57;;;;;;;;;;;18.50;99.90;;;;;;5056439;28;20356;-69
2022/07/26 04:40:22;;;;;;;;;;;18.50;99.90;;;;;;5063773;28;19916;-69
2022/07/26 04:42:48;;;;;;;;;;;18.60;99.90;;;;;;5066972;28;19909;-69
2022/07/26 04:45:14;;;;;;;;;;;18.60;99.90;;;;;;5064472;28;20724;-68
2022/07/26 04:47:41;;;;;;;;;;;18.60;99.90;;;;;;5066733;28;19912;-69
2022/07/26 04:50:07;;;;;;;;;;;18.70;99.90;;;;;;5064367;28;19916;-69
2022/07/26 04:52:32;;;;;;;;;;;18.60;99.90;;;;;;5059664;28;20696;-69
2022/07/26 04:54:57;;;;;;;;;;;18.50;99.90;;;;;;5062652;28;19919;-68
2022/07/26 04:57:23;;;;;;;;;;;18.60;99.90;;;;;;5065953;28;19924;-68
2022/07/26 04:59:48;;;;;;;;;;;18.70;99.90;;;;;;5066196;28;19999;-69
2022/07/26 05:02:14;;;;;;;;;;;18.80;99.90;;;;;;5064296;28;19921;-70
2022/07/26 05:04:40;;;;;;;;;;;18.80;99.90;;;;;;5066243;28;20019;-69
2022/07/26 05:07:05;;;;;;;;;;;18.80;99.90;;;;;;5063376;28;19943;-69
2022/07/26 05:09:31;;;;;;;;;;;18.80;99.90;;;;;;5066409;28;20363;-70
2022/07/26 05:11:56;;;;;;;;;;;18.60;99.90;;;;;;5064421;28;19921;-69
2022/07/26 05:14:22;;;;;;;;;;;18.70;99.90;;;;;;5065750;28;19924;-69
2022/07/26 05:16:47;;;;;;;;;;;18.80;99.90;;;;;;5063990;28;19922;-70
2022/07/26 05:19:13;;;;;;;;;;;18.80;99.90;;;;;;5066009;28;20351;-70
2022/07/26 05:21:38;;;;;;;;;;;18.90;99.90;;;;;;5063963;28;19914;-70
2022/07/26 05:24:04;;;;;;;;;;;18.80;99.90;;;;;;5065793;28;19920;-69
2022/07/26 05:26:30;;;;;;;;;;;18.80;99.90;;;;;;5060926;28;19916;-71
2022/07/26 05:28:55;;;;;;;;;;;18.90;99.90;;;;;;5064901;28;19924;-69
2022/07/26 05:31:21;;;;;;;;;;;19.10;99.90;;;;;;5063363;28;19920;-69
2022/07/26 05:33:46;;;;;;;;;;;19.10;99.90;;;;;;5064987;28;19990;-69
2022/07/26 05:36:12;;;;;;;;;;;19.10;99.90;;;;;;5063430;28;19981;-69
2022/07/26 05:38:37;;;;;;;;;;;19.10;99.90;;;;;;5064835;28;19923;-70
2022/07/26 05:41:03;;;;;;;;;;;19.20;99.90;;;;;;5061810;28;20374;-70
2022/07/26 05:43:28;;;;;;;;;;;19.30;99.90;;;;;;5065804;28;20019;-70
2022/07/26 05:45:55;;;;;;;;;;;19.30;99.90;;;;;;5061998;28;20403;-71
2022/07/26 05:48:20;;;;;;;;;;;19.30;99.90;;;;;;5064614;28;19912;-70
2022/07/26 05:50:46;;;;;;;;;;;19.40;99.90;;;;;;5057449;28;19920;-69
2022/07/26 05:53:11;;;;;;;;;;;19.50;99.90;;;;;;5059465;28;20418;-69
2022/07/26 05:55:36;;;;;;;;;;;19.50;99.90;;;;;;5063765;28;19946;-70
2022/07/26 05:58:02;;;;;;;;;;;19.50;99.90;;;;;;5064251;28;20373;-69
2022/07/26 06:00:28;;;;;;;;;;;19.70;99.90;;;;;;5062785;28;19913;-70
2022/07/26 06:02:53;;;;;;;;;;;19.70;99.90;;;;;;5065863;28;19916;-69
2022/07/26 06:05:19;;;;;;;;;;;19.60;99.90;;;;;;5062363;28;19943;-70
2022/07/26 06:07:44;;;;;;;;;;;19.70;99.90;;;;;;5064983;28;19917;-69
2022/07/26 06:10:10;;;;;;;;;;;19.70;99.90;;;;;;5064809;28;19993;-68
2022/07/26 06:12:35;;;;;;;;;;;19.80;99.90;;;;;;5061865;28;19996;-68
2022/07/26 06:15:01;;;;;;;;;;;19.90;99.90;;;;;;5064060;28;20307;-70
2022/07/26 06:17:28;;;;;;;;;;;19.90;99.90;;;;;;5062336;28;20304;-70
2022/07/26 06:19:54;;;;;;;;;;;20.00;99.90;;;;;;5064943;28;19958;-70
2022/07/26 06:22:20;;;;;;;;;;;20.10;99.90;;;;;;5050202;28;19916;-70
2022/07/26 06:24:45;;;;;;;;;;;20.10;99.90;;;;;;5063795;28;19916;-70
2022/07/26 06:27:11;;;;;;;;;;;20.10;99.90;;;;;;5058856;28;19917;-70
2022/07/26 06:29:36;;;;;;;;;;;20.20;99.90;;;;;;5064282;28;19986;-68
2022/07/26 06:32:02;;;;;;;;;;;20.30;99.90;;;;;;5062942;28;19920;-71
2022/07/26 06:34:27;;;;;;;;;;;20.40;99.90;;;;;;5062901;28;20003;-70
2022/07/26 06:36:53;;;;;;;;;;;20.30;99.90;;;;;;5062551;28;19916;-71
2022/07/26 06:39:18;;;;;;;;;;;20.00;99.90;;;;;;5064786;28;19913;-71
2022/07/26 06:41:43;;;;;;;;;;;20.10;99.90;;;;;;5062599;28;19924;-71
2022/07/26 06:44:09;;;;;;;;;;;20.30;99.90;;;;;;5064264;28;19924;-69
2022/07/26 06:46:35;;;;;;;;;;;20.30;99.90;;;;;;5062962;28;19924;-70
2022/07/26 06:49:00;;;;;;;;;;;20.20;99.90;;;;;;5064662;28;19917;-70
2022/07/26 06:51:26;;;;;;;;;;;20.20;99.90;;;;;;5063038;28;19916;-70
2022/07/26 06:53:52;;;;;;;;;;;20.20;99.90;;;;;;5065229;28;20042;-70
2022/07/26 06:56:17;;;;;;;;;;;20.20;99.90;;;;;;5055023;28;20446;-70
2022/07/26 06:58:43;;;;;;;;;;;20.30;99.90;;;;;;5045698;28;19912;-70
2022/07/26 07:01:08;;;;;;;;;;;20.30;99.90;;;;;;5063109;28;19938;-72
2022/07/26 07:03:34;;;;;;;;;;;20.40;99.90;;;;;;5065109;28;20283;-70
2022/07/26 07:05:59;;;;;;;;;;;20.40;99.90;;;;;;5062473;28;19913;-70
2022/07/26 07:08:25;;;;;;;;;;;20.40;99.90;;;;;;5055088;28;19913;-69
2022/07/26 07:10:51;;;;;;;;;;;20.30;99.90;;;;;;5061750;28;19928;-69
2022/07/26 07:13:17;;;;;;;;;;;20.40;99.90;;;;;;5051191;28;20075;-69
2022/07/26 07:15:42;;;;;;;;;;;20.40;99.90;;;;;;5057977;28;20410;-69
2022/07/26 07:18:08;;;;;;;;;;;20.40;99.90;;;;;;5065912;28;19916;-68
2022/07/26 07:20:33;;;;;;;;;;;20.40;99.90;;;;;;5065432;28;19943;-69
2022/07/26 07:22:59;;;;;;;;;;;20.40;99.90;;;;;;5067446;28;20438;-69
2022/07/26 07:25:24;;;;;;;;;;;20.50;99.90;;;;;;5067564;28;20397;-69
2022/07/26 07:27:50;;;;;;;;;;;20.60;99.90;;;;;;5065786;28;19912;-69
2022/07/26 07:30:16;;;;;;;;;;;20.70;99.90;;;;;;5062866;28;20004;-69
2022/07/26 07:32:41;;;;;;;;;;;20.80;99.90;;;;;;5065673;28;19970;-69
2022/07/26 07:35:07;;;;;;;;;;;20.80;99.90;;;;;;5067810;28;19917;-70
2022/07/26 07:37:33;;;;;;;;;;;20.70;99.90;;;;;;5065118;28;19942;-69
2022/07/26 07:39:59;;;;;;;;;;;20.90;99.90;;;;;;5067416;28;19919;-69
2022/07/26 07:42:24;;;;;;;;;;;20.90;99.90;;;;;;5064274;28;19916;-70
2022/07/26 07:44:50;;;;;;;;;;;20.90;99.90;;;;;;5067024;28;19952;-70
2022/07/26 07:47:16;;;;;;;;;;;21.10;99.90;;;;;;5064568;28;20019;-74
2022/07/26 07:49:42;;;;;;;;;;;21.20;99.90;;;;;;5066746;28;19916;-70
2022/07/26 07:52:07;;;;;;;;;;;21.30;99.90;;;;;;5065131;28;19924;-69
2022/07/26 07:54:32;;;;;;;;;;;21.50;99.90;;;;;;5066909;28;19924;-69
2022/07/26 07:56:58;;;;;;;;;;;21.40;99.90;;;;;;5064985;28;19930;-69
2022/07/26 07:59:23;;;;;;;;;;;21.70;99.90;;;;;;5066807;28;19916;-70
2022/07/26 08:01:49;;;;;;;;;;;21.80;99.90;;;;;;5064885;28;20394;-71
2022/07/26 08:04:17;;;;;;;;;;;22.00;99.90;;;;;;5066692;28;19917;-70
2022/07/26 08:06:43;;;;;;;;;;;22.10;99.90;;;;;;5065074;28;20434;-69
2022/07/26 08:09:08;;;;;;;;;;;21.90;99.90;;;;;;5066710;28;20003;-69
2022/07/26 08:11:34;;;;;;;;;;;22.00;99.90;;;;;;5065117;28;19931;-69
2022/07/26 08:13:59;;;;;;;;;;;21.80;99.90;;;;;;5067250;28;19971;-70
2022/07/26 08:16:25;;;;;;;;;;;21.80;99.90;;;;;;5064194;28;19916;-70
2022/07/26 08:18:50;;;;;;;;;;;21.80;99.90;;;;;;5067214;28;20027;-70
2022/07/26 08:21:16;;;;;;;;;;;21.70;99.90;;;;;;5065660;28;19917;-70
2022/07/26 08:23:41;;;;;;;;;;;21.70;99.90;;;;;;5066003;28;19912;-69
2022/07/26 08:26:06;;;;;;;;;;;21.70;99.90;;;;;;5065137;28;19917;-70
2022/07/26 08:28:32;;;;;;;;;;;21.70;99.90;;;;;;5056138;28;19913;-70
2022/07/26 08:30:57;;;;;;;;;;;21.60;99.90;;;;;;5060594;28;19916;-70
2022/07/26 08:33:23;;;;;;;;;;;21.40;99.90;;;;;;5063516;28;19912;-68
2022/07/26 08:35:48;;;;;;;;;;;21.40;99.90;;;;;;5058711;28;19927;-85
2022/07/26 08:38:14;;;;;;;;;;;21.70;99.90;;;;;;5063599;28;20375;-69
2022/07/26 08:40:39;;;;;;;;;;;22.00;99.90;;;;;;5063607;28;20429;-69
2022/07/26 08:43:05;;;;;;;;;;;22.10;99.90;;;;;;5064571;28;20283;-68
2022/07/26 08:45:31;;;;;;;;;;;22.10;99.90;;;;;;5065739;28;19917;-69
2022/07/26 08:47:57;;;;;;;;;;;21.90;99.90;;;;;;5061340;28;19923;-67
2022/07/26 08:50:23;;;;;;;;;;;21.90;99.90;;;;;;5066228;28;19916;-69
2022/07/26 08:52:50;;;;;;;;;;;21.80;99.90;;;;;;5062561;28;19930;-70
2022/07/26 08:55:16;;;;;;;;;;;22.00;99.90;;;;;;5065739;28;19916;-71
2022/07/26 08:57:41;;;;;;;;;;;22.50;99.90;;;;;;5061001;28;20344;-70
2022/07/26 09:00:36;;;;;;;;;;;22.80;99.90;;;;;;5062755;28;19917;-71
2022/07/26 09:03:02;;;;;;;;;;;22.80;99.90;;;;;;5051178;28;19917;-71
2022/07/26 09:05:28;;;;;;;;;;;22.70;99.90;;;;;;5063038;28;19916;-71
2022/07/26 09:07:53;;;;;;;;;;;22.60;99.90;;;;;;5057619;28;19916;-70
2022/07/26 09:10:19;;;;;;;;;;;22.50;99.90;;;;;;5063289;28;19916;-72
2022/07/26 09:12:44;;;;;;;;;;;22.60;99.90;;;;;;5061620;28;19920;-71
2022/07/26 09:15:17;;;;;;;;;;;22.70;99.90;;;;;;5064915;28;20694;-70
2022/07/26 09:17:44;;;;;;;;;;;22.90;99.90;;;;;;5056922;28;19916;-71
2022/07/26 09:20:11;;;;;;;;;;;23.10;99.90;;;;;;5064368;28;19916;-71
2022/07/26 09:22:37;;;;;;;;;;;23.20;99.90;;;;;;5057622;28;20449;-71
2022/07/26 09:25:17;;;;;;;;;;;23.00;99.90;;;;;;5063216;28;19920;-71
2022/07/26 09:27:42;;;;;;;;;;;23.00;99.90;;;;;;5060759;28;19923;-71
2022/07/26 09:30:08;;;;;;;;;;;23.20;99.90;;;;;;5065345;28;19917;-72
2022/07/26 09:32:35;;;;;;;;;;;23.00;99.90;;;;;;5063427;28;19920;-74
2022/07/26 09:35:12;;;;;;;;;;;22.90;99.90;;;;;;5065816;28;19924;-71
2022/07/26 09:37:38;;;;;;;;;;;23.40;99.90;;;;;;5059917;28;19917;-71
2022/07/26 09:40:05;;;;;;;;;;;23.80;99.90;;;;;;5062084;28;19916;-71
2022/07/26 09:42:31;;;;;;;;;;;23.80;98.80;;;;;;5062656;28;19943;-71
2022/07/26 09:44:57;;;;;;;;;;;24.00;99.40;;;;;;5062542;28;20362;-71
2022/07/26 09:47:22;;;;;;;;;;;24.30;98.10;;;;;;5061578;28;20330;-71
2022/07/26 09:49:48;;;;;;;;;;;24.80;97.60;;;;;;5061596;28;19923;-71
2022/07/26 09:52:18;;;;;;;;;;;25.30;97.90;;;;;;5059899;28;19969;-71
2022/07/26 09:54:45;;;;;;;;;;;25.40;96.80;;;;;;5061875;28;19917;-72
2022/07/26 09:57:13;;;;;;;;;;;25.10;96.50;;;;;;5055204;28;20407;-71
2022/07/26 09:59:38;;;;;;;;;;;24.60;96.50;;;;;;5061343;28;20003;-71
2022/07/26 10:02:04;;;;;;;;;;;24.20;97.20;;;;;;5059651;28;20031;-71
2022/07/26 10:04:30;;;;;;;;;;;23.80;97.10;;;;;;5062688;28;19963;-73
2022/07/26 10:06:57;;;;;;;;;;;23.80;97.60;;;;;;5054605;28;19959;-81
2022/07/26 10:09:22;;;;;;;;;;;23.70;98.00;;;;;;5053875;28;20368;-76
2022/07/26 10:11:55;;;;;;;;;;;24.00;98.20;;;;;;5061236;28;19924;-87
2022/07/26 10:14:32;;;;;;;;;;;24.20;97.50;;;;;;5060741;28;19912;-78
2022/07/26 10:17:20;;;;;;;;;;;24.00;97.20;;;;;;5060850;28;19916;-77
2022/07/26 10:19:46;;;;;;;;;;;24.00;97.60;;;;;;5059560;28;19936;-71
2022/07/26 10:22:30;;;;;;;;;;;23.90;97.40;;;;;;5062073;28;20347;-73
2022/07/26 10:25:16;;;;;;;;;;;23.60;97.90;;;;;;5064103;28;19916;-74
2022/07/26 10:27:42;;;;;;;;;;;23.70;97.70;;;;;;5053195;28;19919;-72
2022/07/26 10:30:21;;;;;;;;;;;23.60;97.80;;;;;;5055902;28;19924;-81
2022/07/26 10:32:50;;;;;;;;;;;23.50;98.00;;;;;;5057198;28;19916;-80
2022/07/26 10:35:31;;;;;;;;;;;23.50;98.50;;;;;;5059456;28;19921;-79
2022/07/26 10:38:01;;;;;;;;;;;23.70;97.90;;;;;;5072289;28;20161;-78
2022/07/26 10:40:29;;;;;;;;;;;23.40;97.80;;;;;;5054063;28;19916;-79
2022/07/26 10:43:11;;;;;;;;;;;23.30;97.90;;;;;;5055816;28;19950;-78
2022/07/26 10:45:36;;;;;;;;;;;23.50;98.20;;;;;;5059507;28;19916;-79
2022/07/26 10:48:31;;;;;;;;;;;24.00;97.60;;;;;;5054413;28;19923;-77
2022/07/26 10:50:57;;;;;;;;;;;24.20;97.60;;;;;;5054316;28;19928;-76
2022/07/26 10:53:23;;;;;;;;;;;24.50;96.90;;;;;;5054129;28;19916;-75
2022/07/26 10:55:54;;;;;;;;;;;24.50;97.00;;;;;;5063798;28;19916;-76
2022/07/26 10:58:20;;;;;;;;;;;24.80;96.40;;;;;;5058211;28;19925;-77
2022/07/26 11:00:59;;;;;;;;;;;25.00;96.60;;;;;;5068055;28;19916;-76
2022/07/26 11:03:33;;;;;;;;;;;25.00;96.20;;;;;;5061537;28;19920;-77
2022/07/26 11:06:07;;;;;;;;;;;25.20;96.10;;;;;;5063316;28;19959;-77
2022/07/26 11:08:32;;;;;;;;;;;25.90;94.90;;;;;;5064027;28;19916;-81
2022/07/26 11:10:58;;;;;;;;;;;26.40;94.30;;;;;;5068138;28;19920;-71
2022/07/26 11:13:23;;;;;;;;;;;26.70;93.80;;;;;;5065256;28;19989;-72
2022/07/26 11:15:58;;;;;;;;;;;27.30;93.10;;;;;;5067587;28;19916;-72
2022/07/26 11:18:28;;;;;;;;;;;27.00;92.30;;;;;;5060636;28;19955;-71
2022/07/26 11:20:55;;;;;;;;;;;26.70;92.90;;;;;;5066178;28;20007;-71
2022/07/26 11:23:28;;;;;;;;;;;27.00;92.90;;;;;;5056320;28;20046;-71
2022/07/26 11:25:57;;;;;;;;;;;27.20;92.80;;;;;;5062860;28;20347;-70
2022/07/26 11:28:23;;;;;;;;;;;26.40;92.50;;;;;;5057755;28;19967;-71
2022/07/26 11:30:58;;;;;;;;;;;25.80;93.50;;;;;;5065775;28;19944;-71
2022/07/26 11:33:36;;;;;;;;;;;25.30;93.70;;;;;;5059921;28;19916;-71
2022/07/26 11:36:02;;;;;;;;;;;25.20;94.10;;;;;;5063846;28;20148;-73
2022/07/26 11:38:44;;;;;;;;;;;25.10;94.60;;;;;;5054112;28;19986;-79
2022/07/26 11:41:10;;;;;;;;;;;24.70;94.10;;;;;;5058698;28;19916;-72
2022/07/26 11:43:36;;;;;;;;;;;24.50;94.10;;;;;;5062554;28;20625;-72
2022/07/26 11:46:02;;;;;;;;;;;24.50;94.10;;;;;;5061237;28;19927;-72
2022/07/26 11:48:27;;;;;;;;;;;24.50;94.40;;;;;;5048239;28;19917;-72
2022/07/26 11:51:07;;;;;;;;;;;24.80;94.60;;;;;;5065361;28;20314;-71
2022/07/26 11:53:36;;;;;;;;;;;25.10;94.20;;;;;;5060854;28;19952;-74
2022/07/26 11:56:19;;;;;;;;;;;24.80;94.00;;;;;;5061536;28;20012;-74
2022/07/26 11:58:46;;;;;;;;;;;24.40;94.80;;;;;;5057197;28;19928;-75
2022/07/26 12:01:12;;;;;;;;;;;24.10;95.00;;;;;;5059353;28;20355;-76
2022/07/26 12:03:39;;;;;;;;;;;23.90;95.10;;;;;;5058081;28;20000;-75
2022/07/26 12:06:06;;;;;;;;;;;23.60;94.10;;;;;;5063102;28;19916;-73
2022/07/26 12:08:48;;;;;;;;;;;23.40;93.40;;;;;;5058216;28;20053;-75
2022/07/26 12:11:14;;;;;;;;;;;23.30;93.70;;;;;;5058971;28;20115;-73
2022/07/26 12:13:51;;;;;;;;;;;22.70;96.70;;;;;;5061086;28;19951;-74
2022/07/26 12:16:35;;;;;;;;;;;22.30;99.90;;;;;;5061570;28;19912;-74
2022/07/26 12:19:02;;;;;;;;;;;21.20;99.90;;;;;;5061118;28;19923;-73
2022/07/26 12:21:37;;;;;;;;;;;20.10;99.90;;;;;;5058514;28;19964;-82
2022/07/26 12:24:02;;;;;;;;;;;19.30;99.90;;;;;;5054213;28;20323;-77
2022/07/26 12:26:29;;;;;;;;;;;18.50;99.90;;;;;;5061042;28;19916;-70
2022/07/26 12:28:55;;;;;;;;;;;18.00;99.90;;;;;;5058996;28;19963;-69
2022/07/26 12:31:22;;;;;;;;;;;17.70;99.90;;;;;;5066903;28;20022;-71
2022/07/26 12:33:48;;;;;;;;;;;17.30;99.90;;;;;;5055268;28;19916;-73
2022/07/26 12:36:19;;;;;;;;;;;17.20;99.90;;;;;;5064924;28;19923;-72
2022/07/26 12:38:45;;;;;;;;;;;17.20;99.90;;;;;;5053638;28;19974;-70
2022/07/26 12:41:10;;;;;;;;;;;17.20;99.90;;;;;;5060922;28;19958;-72
2022/07/26 12:43:39;;;;;;;;;;;17.30;99.90;;;;;;5056200;28;19917;-71
2022/07/26 12:46:05;;;;;;;;;;;17.40;99.90;;;;;;5063953;28;20398;-71
2022/07/26 12:48:30;;;;;;;;;;;17.40;99.90;;;;;;5058522;28;19913;-72
2022/07/26 12:50:56;;;;;;;;;;;17.40;99.90;;;;;;5059710;28;19983;-72
2022/07/26 12:53:21;;;;;;;;;;;17.30;99.90;;;;;;5060275;28;19916;-71
2022/07/26 12:55:47;;;;;;;;;;;17.30;99.90;;;;;;5063498;28;19924;-71
2022/07/26 12:58:12;;;;;;;;;;;17.30;99.90;;;;;;5058490;28;20332;-71
2022/07/26 13:00:38;;;;;;;;;;;17.20;99.90;;;;;;5060771;28;20290;-71
2022/07/26 13:03:03;;;;;;;;;;;17.20;99.90;;;;;;5058854;28;20100;-71
2022/07/26 13:05:30;;;;;;;;;;;17.20;99.90;;;;;;5059832;28;19924;-71
2022/07/26 13:07:55;;;;;;;;;;;17.40;99.90;;;;;;5058970;28;19959;-71
2022/07/26 13:10:21;;;;;;;;;;;17.50;99.90;;;;;;5061029;28;20022;-72
2022/07/26 13:12:47;;;;;;;;;;;17.50;99.90;;;;;;5058611;28;20396;-71
2022/07/26 13:15:12;;;;;;;;;;;17.60;99.90;;;;;;5061225;28;19920;-70
2022/07/26 13:17:38;;;;;;;;;;;17.60;99.90;;;;;;5062898;28;19912;-71
2022/07/26 13:20:03;;;;;;;;;;;17.80;99.90;;;;;;5065493;28;19923;-70
2022/07/26 13:22:29;;;;;;;;;;;17.90;99.90;;;;;;5063155;28;19916;-71
2022/07/26 13:24:54;;;;;;;;;;;18.00;99.90;;;;;;5065721;28;19916;-70
2022/07/26 13:27:20;;;;;;;;;;;18.30;99.90;;;;;;5063440;28;19913;-71
2022/07/26 13:29:45;;;;;;;;;;;18.50;99.90;;;;;;5064746;28;19912;-70
2022/07/26 13:32:10;;;;;;;;;;;18.50;99.90;;;;;;5063022;28;20308;-71
2022/07/26 13:34:36;;;;;;;;;;;18.50;99.90;;;;;;5065240;28;20321;-69
2022/07/26 13:37:01;;;;;;;;;;;18.50;99.90;;;;;;5063137;28;19920;-71
2022/07/26 13:39:27;;;;;;;;;;;18.40;99.90;;;;;;5063929;28;19913;-71
2022/07/26 13:41:53;;;;;;;;;;;18.30;99.90;;;;;;5063501;28;19916;-71
2022/07/26 13:44:18;;;;;;;;;;;18.40;99.90;;;;;;5064657;28;19919;-71
2022/07/26 13:46:44;;;;;;;;;;;18.60;99.90;;;;;;5063171;28;19920;-71
2022/07/26 13:49:09;;;;;;;;;;;18.80;99.90;;;;;;5064991;28;19953;-70
2022/07/26 13:54:20;;;;;;;;;;;19.10;99.90;;;;;;5060027;28;19950;-74
2022/07/26 13:56:46;;;;;;;;;;;19.60;99.90;;;;;;5062451;28;19925;-74
2022/07/26 13:59:12;;;;;;;;;;;19.70;99.90;;;;;;5057425;28;20650;-73
2022/07/26 14:01:38;;;;;;;;;;;19.50;99.90;;;;;;5062966;28;19927;-74
2022/07/26 14:04:05;;;;;;;;;;;19.60;99.90;;;;;;5060308;28;21462;-73
2022/07/26 14:06:31;;;;;;;;;;;19.90;99.90;;;;;;5064625;28;20371;-79
2022/07/26 14:08:57;;;;;;;;;;;20.10;99.90;;;;;;5053632;28;19924;-74
2022/07/26 14:11:23;;;;;;;;;;;20.10;99.90;;;;;;5062616;28;19921;-81
2022/07/26 14:13:48;;;;;;;;;;;20.20;99.90;;;;;;5048898;28;19924;-73
2022/07/26 14:16:14;;;;;;;;;;;20.20;99.90;;;;;;5063668;28;19920;-73